sensor_id;sensor_type;location;lat;lon;timestamp;temperature;humidity
68251;DHT22;55066;51.560;4.642;2022-10-16T00:01:30;12.64;98.22
68251;DHT22;55066;51.560;4.642;2022-10-16T00:03:57;12.67;98.27
68251;DHT22;55066;51.560;4.642;2022-10-16T00:06:23;12.64;97.93
68251;DHT22;55066;51.560;4.642;2022-10-16T00:08:49;12.77;97.86
68251;DHT22;55066;51.560;4.642;2022-10-16T00:13:44;12.80;98.02
68251;DHT22;55066;51.560;4.642;2022-10-16T00:16:10;12.78;98.04
68251;DHT22;55066;51.560;4.642;2022-10-16T00:18:36;12.80;98.04
68251;DHT22;55066;51.560;4.642;2022-10-16T00:21:32;12.84;98.00
68251;DHT22;55066;51.560;4.642;2022-10-16T00:24:01;12.88;97.85
68251;DHT22;55066;51.560;4.642;2022-10-16T00:26:29;12.89;97.86
68251;DHT22;55066;51.560;4.642;2022-10-16T00:28:55;12.92;97.84
68251;DHT22;55066;51.560;4.642;2022-10-16T00:31:22;12.92;97.61
68251;DHT22;55066;51.560;4.642;2022-10-16T00:33:47;13.03;96.78
68251;DHT22;55066;51.560;4.642;2022-10-16T00:36:15;13.08;96.54
68251;DHT22;55066;51.560;4.642;2022-10-16T00:38:41;13.06;97.03
68251;DHT22;55066;51.560;4.642;2022-10-16T00:41:09;12.96;97.40
68251;DHT22;55066;51.560;4.642;2022-10-16T00:43:48;12.88;97.18
68251;DHT22;55066;51.560;4.642;2022-10-16T00:46:37;12.95;97.67
68251;DHT22;55066;51.560;4.642;2022-10-16T00:49:08;13.10;96.89
68251;DHT22;55066;51.560;4.642;2022-10-16T00:51:46;13.03;97.54
68251;DHT22;55066;51.560;4.642;2022-10-16T00:54:23;13.03;97.24
68251;DHT22;55066;51.560;4.642;2022-10-16T00:56:50;13.00;97.64
68251;DHT22;55066;51.560;4.642;2022-10-16T00:59:25;13.00;97.59
68251;DHT22;55066;51.560;4.642;2022-10-16T01:01:52;12.89;97.48
68251;DHT22;55066;51.560;4.642;2022-10-16T01:04:18;12.75;98.18
68251;DHT22;55066;51.560;4.642;2022-10-16T01:10:21;12.69;98.86
68251;DHT22;55066;51.560;4.642;2022-10-16T01:12:58;12.57;99.18
68251;DHT22;55066;51.560;4.642;2022-10-16T01:15:34;12.54;99.31
68251;DHT22;55066;51.560;4.642;2022-10-16T01:18:28;12.47;99.48
68251;DHT22;55066;51.560;4.642;2022-10-16T01:21:02;12.48;99.27
68251;DHT22;55066;51.560;4.642;2022-10-16T01:26:19;12.48;99.57
68251;DHT22;55066;51.560;4.642;2022-10-16T01:28:58;12.50;99.80
68251;DHT22;55066;51.560;4.642;2022-10-16T01:31:29;12.51;99.35
68251;DHT22;55066;51.560;4.642;2022-10-16T01:34:00;12.57;99.53
68251;DHT22;55066;51.560;4.642;2022-10-16T01:36:51;12.57;99.63
68251;DHT22;55066;51.560;4.642;2022-10-16T01:39:20;12.51;99.65
68251;DHT22;55066;51.560;4.642;2022-10-16T01:41:49;12.48;99.17
68251;DHT22;55066;51.560;4.642;2022-10-16T01:44:20;12.38;99.73
68251;DHT22;55066;51.560;4.642;2022-10-16T01:46:48;12.29;99.79
68251;DHT22;55066;51.560;4.642;2022-10-16T01:49:17;12.33;99.99
68251;DHT22;55066;51.560;4.642;2022-10-16T01:51:45;12.23;99.99
68251;DHT22;55066;51.560;4.642;2022-10-16T01:54:13;12.19;99.99
68251;DHT22;55066;51.560;4.642;2022-10-16T01:56:40;12.16;99.99
68251;DHT22;55066;51.560;4.642;2022-10-16T01:59:10;12.15;99.99
68251;DHT22;55066;51.560;4.642;2022-10-16T02:01:39;12.26;99.99
68251;DHT22;55066;51.560;4.642;2022-10-16T02:04:19;12.33;99.99
68251;DHT22;55066;51.560;4.642;2022-10-16T02:06:45;12.37;99.99
68251;DHT22;55066;51.560;4.642;2022-10-16T02:09:11;12.26;99.99
68251;DHT22;55066;51.560;4.642;2022-10-16T02:11:36;12.22;99.99
68251;DHT22;55066;51.560;4.642;2022-10-16T02:14:04;12.19;99.99
68251;DHT22;55066;51.560;4.642;2022-10-16T02:16:44;12.23;99.99
68251;DHT22;55066;51.560;4.642;2022-10-16T02:19:12;12.24;99.99
68251;DHT22;55066;51.560;4.642;2022-10-16T02:21:51;12.30;99.99
68251;DHT22;55066;51.560;4.642;2022-10-16T02:24:28;12.23;99.99
68251;DHT22;55066;51.560;4.642;2022-10-16T02:27:24;12.19;99.99
68251;DHT22;55066;51.560;4.642;2022-10-16T02:32:50;12.33;99.99
68251;DHT22;55066;51.560;4.642;2022-10-16T02:35:18;12.30;99.98
68251;DHT22;55066;51.560;4.642;2022-10-16T02:37:46;12.23;99.99
68251;DHT22;55066;51.560;4.642;2022-10-16T02:40:12;12.22;99.99
68251;DHT22;55066;51.560;4.642;2022-10-16T02:42:39;12.23;99.99
68251;DHT22;55066;51.560;4.642;2022-10-16T02:45:07;12.22;99.99
68251;DHT22;55066;51.560;4.642;2022-10-16T02:47:32;12.27;99.99
68251;DHT22;55066;51.560;4.642;2022-10-16T02:49:58;12.19;99.99
68251;DHT22;55066;51.560;4.642;2022-10-16T02:52:23;12.15;99.99
68251;DHT22;55066;51.560;4.642;2022-10-16T02:54:48;12.06;99.99
68251;DHT22;55066;51.560;4.642;2022-10-16T02:57:14;12.20;99.99
68251;DHT22;55066;51.560;4.642;2022-10-16T02:59:39;12.17;99.99
68251;DHT22;55066;51.560;4.642;2022-10-16T03:02:05;12.03;99.99
68251;DHT22;55066;51.560;4.642;2022-10-16T03:04:30;12.03;99.99
68251;DHT22;55066;51.560;4.642;2022-10-16T03:06:56;11.98;99.99
68251;DHT22;55066;51.560;4.642;2022-10-16T03:09:21;12.00;99.99
68251;DHT22;55066;51.560;4.642;2022-10-16T03:11:46;12.02;99.99
68251;DHT22;55066;51.560;4.642;2022-10-16T03:14:12;12.03;99.99
68251;DHT22;55066;51.560;4.642;2022-10-16T03:16:37;11.96;99.99
68251;DHT22;55066;51.560;4.642;2022-10-16T03:19:03;11.95;99.99
68251;DHT22;55066;51.560;4.642;2022-10-16T03:21:28;11.99;99.99
68251;DHT22;55066;51.560;4.642;2022-10-16T03:23:53;11.98;99.99
68251;DHT22;55066;51.560;4.642;2022-10-16T03:26:19;11.90;99.99
68251;DHT22;55066;51.560;4.642;2022-10-16T03:28:44;11.95;99.99
68251;DHT22;55066;51.560;4.642;2022-10-16T03:31:09;11.90;99.99
68251;DHT22;55066;51.560;4.642;2022-10-16T03:33:35;11.89;99.99
68251;DHT22;55066;51.560;4.642;2022-10-16T03:36:00;11.89;99.99
68251;DHT22;55066;51.560;4.642;2022-10-16T03:38:26;11.86;99.99
68251;DHT22;55066;51.560;4.642;2022-10-16T03:40:51;11.89;99.99
68251;DHT22;55066;51.560;4.642;2022-10-16T03:43:16;11.86;99.99
68251;DHT22;55066;51.560;4.642;2022-10-16T03:45:42;11.93;99.99
68251;DHT22;55066;51.560;4.642;2022-10-16T03:48:07;11.92;99.99
68251;DHT22;55066;51.560;4.642;2022-10-16T03:50:33;11.93;99.99
68251;DHT22;55066;51.560;4.642;2022-10-16T03:52:58;11.88;99.99
68251;DHT22;55066;51.560;4.642;2022-10-16T03:55:23;11.92;99.99
68251;DHT22;55066;51.560;4.642;2022-10-16T03:57:49;11.96;99.99
68251;DHT22;55066;51.560;4.642;2022-10-16T04:00:14;12.06;99.99
68251;DHT22;55066;51.560;4.642;2022-10-16T04:02:40;11.92;99.99
68251;DHT22;55066;51.560;4.642;2022-10-16T04:05:06;11.79;99.99
68251;DHT22;55066;51.560;4.642;2022-10-16T04:07:32;11.82;99.99
68251;DHT22;55066;51.560;4.642;2022-10-16T04:09:57;11.88;99.99
68251;DHT22;55066;51.560;4.642;2022-10-16T04:12:24;11.95;99.99
68251;DHT22;55066;51.560;4.642;2022-10-16T04:14:50;11.88;99.99
68251;DHT22;55066;51.560;4.642;2022-10-16T04:17:15;11.83;99.99
68251;DHT22;55066;51.560;4.642;2022-10-16T04:19:40;11.86;99.99
68251;DHT22;55066;51.560;4.642;2022-10-16T04:22:06;11.78;99.99
68251;DHT22;55066;51.560;4.642;2022-10-16T04:24:31;11.75;99.99
68251;DHT22;55066;51.560;4.642;2022-10-16T04:26:56;11.67;99.99
68251;DHT22;55066;51.560;4.642;2022-10-16T04:29:22;11.65;99.99
68251;DHT22;55066;51.560;4.642;2022-10-16T04:31:47;11.69;99.99
68251;DHT22;55066;51.560;4.642;2022-10-16T04:34:13;11.60;99.99
68251;DHT22;55066;51.560;4.642;2022-10-16T04:36:38;11.64;99.99
68251;DHT22;55066;51.560;4.642;2022-10-16T04:39:03;11.52;99.99
68251;DHT22;55066;51.560;4.642;2022-10-16T04:41:29;11.48;99.99
68251;DHT22;55066;51.560;4.642;2022-10-16T04:43:54;11.48;99.99
68251;DHT22;55066;51.560;4.642;2022-10-16T04:46:19;11.41;99.99
68251;DHT22;55066;51.560;4.642;2022-10-16T04:48:45;11.47;99.99
68251;DHT22;55066;51.560;4.642;2022-10-16T04:51:11;11.47;99.99
68251;DHT22;55066;51.560;4.642;2022-10-16T04:53:37;11.45;99.99
68251;DHT22;55066;51.560;4.642;2022-10-16T04:56:02;11.55;99.99
68251;DHT22;55066;51.560;4.642;2022-10-16T04:58:28;11.44;99.99
68251;DHT22;55066;51.560;4.642;2022-10-16T05:00:53;11.40;99.99
68251;DHT22;55066;51.560;4.642;2022-10-16T05:03:19;11.40;99.99
68251;DHT22;55066;51.560;4.642;2022-10-16T05:05:45;11.41;99.99
68251;DHT22;55066;51.560;4.642;2022-10-16T05:08:12;11.54;99.99
68251;DHT22;55066;51.560;4.642;2022-10-16T05:10:38;11.65;99.99
68251;DHT22;55066;51.560;4.642;2022-10-16T05:13:04;11.62;99.99
68251;DHT22;55066;51.560;4.642;2022-10-16T05:15:29;11.61;99.99
68251;DHT22;55066;51.560;4.642;2022-10-16T05:17:55;11.51;99.99
68251;DHT22;55066;51.560;4.642;2022-10-16T05:20:23;11.47;99.99
68251;DHT22;55066;51.560;4.642;2022-10-16T05:22:48;11.42;99.99
68251;DHT22;55066;51.560;4.642;2022-10-16T05:25:14;11.44;99.99
68251;DHT22;55066;51.560;4.642;2022-10-16T05:27:39;11.50;99.99
68251;DHT22;55066;51.560;4.642;2022-10-16T05:30:05;11.51;99.99
68251;DHT22;55066;51.560;4.642;2022-10-16T05:32:30;11.64;99.99
68251;DHT22;55066;51.560;4.642;2022-10-16T05:34:56;11.62;99.99
68251;DHT22;55066;51.560;4.642;2022-10-16T05:37:21;11.51;99.99
68251;DHT22;55066;51.560;4.642;2022-10-16T05:39:46;11.33;99.99
68251;DHT22;55066;51.560;4.642;2022-10-16T05:42:12;11.35;99.99
68251;DHT22;55066;51.560;4.642;2022-10-16T05:50:01;11.55;99.99
68251;DHT22;55066;51.560;4.642;2022-10-16T05:52:35;11.62;99.99
68251;DHT22;55066;51.560;4.642;2022-10-16T05:55:01;11.71;99.99
68251;DHT22;55066;51.560;4.642;2022-10-16T05:57:27;11.75;99.99
68251;DHT22;55066;51.560;4.642;2022-10-16T05:59:52;11.77;99.99
68251;DHT22;55066;51.560;4.642;2022-10-16T06:02:17;11.96;99.99
68251;DHT22;55066;51.560;4.642;2022-10-16T06:04:43;11.95;99.99
68251;DHT22;55066;51.560;4.642;2022-10-16T06:07:08;11.90;99.99
68251;DHT22;55066;51.560;4.642;2022-10-16T06:09:34;11.96;99.99
68251;DHT22;55066;51.560;4.642;2022-10-16T06:11:59;12.00;99.99
68251;DHT22;55066;51.560;4.642;2022-10-16T06:14:24;11.96;99.99
68251;DHT22;55066;51.560;4.642;2022-10-16T06:16:50;11.92;99.99
68251;DHT22;55066;51.560;4.642;2022-10-16T06:19:15;12.00;99.86
68251;DHT22;55066;51.560;4.642;2022-10-16T06:21:41;12.02;99.99
68251;DHT22;55066;51.560;4.642;2022-10-16T06:24:07;11.92;99.99
68251;DHT22;55066;51.560;4.642;2022-10-16T06:26:33;11.98;99.99
68251;DHT22;55066;51.560;4.642;2022-10-16T06:28:59;12.00;99.99
68251;DHT22;55066;51.560;4.642;2022-10-16T06:31:26;12.09;99.99
68251;DHT22;55066;51.560;4.642;2022-10-16T06:33:54;12.09;99.99
68251;DHT22;55066;51.560;4.642;2022-10-16T06:36:20;12.09;99.99
68251;DHT22;55066;51.560;4.642;2022-10-16T06:38:46;12.06;99.99
68251;DHT22;55066;51.560;4.642;2022-10-16T06:41:13;12.12;99.99
68251;DHT22;55066;51.560;4.642;2022-10-16T06:43:39;12.09;99.75
68251;DHT22;55066;51.560;4.642;2022-10-16T06:46:07;12.10;99.99
68251;DHT22;55066;51.560;4.642;2022-10-16T06:48:36;12.16;99.99
68251;DHT22;55066;51.560;4.642;2022-10-16T06:53:29;12.47;99.99
68251;DHT22;55066;51.560;4.642;2022-10-16T06:55:55;12.72;99.99
68251;DHT22;55066;51.560;4.642;2022-10-16T06:58:21;12.84;99.53
68251;DHT22;55066;51.560;4.642;2022-10-16T07:00:46;12.92;99.90
68251;DHT22;55066;51.560;4.642;2022-10-16T07:03:12;12.92;99.10
68251;DHT22;55066;51.560;4.642;2022-10-16T07:05:41;12.92;99.65
68251;DHT22;55066;51.560;4.642;2022-10-16T07:08:07;12.89;99.47
68251;DHT22;55066;51.560;4.642;2022-10-16T07:10:33;12.91;98.51
68251;DHT22;55066;51.560;4.642;2022-10-16T07:12:59;12.87;99.74
68251;DHT22;55066;51.560;4.642;2022-10-16T07:15:25;12.91;99.85
68251;DHT22;55066;51.560;4.642;2022-10-16T07:17:51;12.89;99.88
68251;DHT22;55066;51.560;4.642;2022-10-16T07:20:16;12.88;99.62
68251;DHT22;55066;51.560;4.642;2022-10-16T07:22:41;12.85;99.57
68251;DHT22;55066;51.560;4.642;2022-10-16T07:25:07;12.74;98.48
68251;DHT22;55066;51.560;4.642;2022-10-16T07:27:36;12.75;99.49
68251;DHT22;55066;51.560;4.642;2022-10-16T07:30:01;12.80;99.94
68251;DHT22;55066;51.560;4.642;2022-10-16T07:32:27;12.69;99.99
68251;DHT22;55066;51.560;4.642;2022-10-16T07:34:52;12.68;99.99
68251;DHT22;55066;51.560;4.642;2022-10-16T07:37:18;12.60;99.54
68251;DHT22;55066;51.560;4.642;2022-10-16T07:39:44;12.65;99.99
68251;DHT22;55066;51.560;4.642;2022-10-16T07:42:09;12.78;99.99
68251;DHT22;55066;51.560;4.642;2022-10-16T07:44:34;12.71;99.99
68251;DHT22;55066;51.560;4.642;2022-10-16T07:47:00;12.75;99.99
68251;DHT22;55066;51.560;4.642;2022-10-16T07:49:25;12.80;99.99
68251;DHT22;55066;51.560;4.642;2022-10-16T07:51:51;12.88;99.99
68251;DHT22;55066;51.560;4.642;2022-10-16T07:54:16;13.00;99.83
68251;DHT22;55066;51.560;4.642;2022-10-16T07:56:41;13.10;99.99
68251;DHT22;55066;51.560;4.642;2022-10-16T07:59:07;13.27;98.71
68251;DHT22;55066;51.560;4.642;2022-10-16T08:01:32;13.36;98.82
68251;DHT22;55066;51.560;4.642;2022-10-16T08:03:57;13.46;99.00
68251;DHT22;55066;51.560;4.642;2022-10-16T08:06:23;13.47;98.20
68251;DHT22;55066;51.560;4.642;2022-10-16T08:08:49;13.64;97.65
68251;DHT22;55066;51.560;4.642;2022-10-16T08:11:14;13.73;97.63
68251;DHT22;55066;51.560;4.642;2022-10-16T08:13:40;13.78;97.71
68251;DHT22;55066;51.560;4.642;2022-10-16T08:16:06;13.86;98.00
68251;DHT22;55066;51.560;4.642;2022-10-16T08:18:34;13.95;97.91
68251;DHT22;55066;51.560;4.642;2022-10-16T08:21:00;14.02;97.59
68251;DHT22;55066;51.560;4.642;2022-10-16T08:23:26;14.13;97.16
68251;DHT22;55066;51.560;4.642;2022-10-16T08:25:52;14.16;96.66
68251;DHT22;55066;51.560;4.642;2022-10-16T08:28:18;14.29;97.25
68251;DHT22;55066;51.560;4.642;2022-10-16T08:30:44;14.23;97.17
68251;DHT22;55066;51.560;4.642;2022-10-16T08:33:09;14.11;96.12
68251;DHT22;55066;51.560;4.642;2022-10-16T08:35:35;14.15;96.67
68251;DHT22;55066;51.560;4.642;2022-10-16T08:38:03;14.30;96.53
68251;DHT22;55066;51.560;4.642;2022-10-16T08:40:30;14.44;96.42
68251;DHT22;55066;51.560;4.642;2022-10-16T08:51:08;14.74;95.03
68251;DHT22;55066;51.560;4.642;2022-10-16T08:53:46;14.87;95.14
68251;DHT22;55066;51.560;4.642;2022-10-16T08:56:12;14.88;93.87
68251;DHT22;55066;51.560;4.642;2022-10-16T08:58:37;14.92;93.11
68251;DHT22;55066;51.560;4.642;2022-10-16T09:01:04;14.98;91.62
68251;DHT22;55066;51.560;4.642;2022-10-16T09:03:48;15.04;91.48
68251;DHT22;55066;51.560;4.642;2022-10-16T09:09:06;15.39;92.49
68251;DHT22;55066;51.560;4.642;2022-10-16T09:11:52;15.70;91.78
68251;DHT22;55066;51.560;4.642;2022-10-16T09:17:23;15.70;91.63
68251;DHT22;55066;51.560;4.642;2022-10-16T09:20:03;15.90;91.74
68251;DHT22;55066;51.560;4.642;2022-10-16T09:22:33;15.88;91.20
68251;DHT22;55066;51.560;4.642;2022-10-16T09:25:00;15.97;90.68
68251;DHT22;55066;51.560;4.642;2022-10-16T09:27:30;15.93;90.60
68251;DHT22;55066;51.560;4.642;2022-10-16T09:29:56;15.80;90.19
68251;DHT22;55066;51.560;4.642;2022-10-16T09:32:22;16.11;90.76
68251;DHT22;55066;51.560;4.642;2022-10-16T09:34:50;16.07;89.78
68251;DHT22;55066;51.560;4.642;2022-10-16T09:37:18;16.02;90.88
68251;DHT22;55066;51.560;4.642;2022-10-16T09:39:49;16.36;89.61
68251;DHT22;55066;51.560;4.642;2022-10-16T09:42:20;16.77;89.22
68251;DHT22;55066;51.560;4.642;2022-10-16T09:44:51;16.66;89.15
68251;DHT22;55066;51.560;4.642;2022-10-16T09:47:19;16.57;89.21
68251;DHT22;55066;51.560;4.642;2022-10-16T09:52:23;16.18;88.71
68251;DHT22;55066;51.560;4.642;2022-10-16T09:54:54;16.05;89.27
68251;DHT22;55066;51.560;4.642;2022-10-16T09:57:20;16.17;89.13
68251;DHT22;55066;51.560;4.642;2022-10-16T09:59:51;16.55;89.34
68251;DHT22;55066;51.560;4.642;2022-10-16T10:02:20;16.48;87.46
68251;DHT22;55066;51.560;4.642;2022-10-16T10:04:53;16.32;88.52
68251;DHT22;55066;51.560;4.642;2022-10-16T10:07:28;16.30;87.75
68251;DHT22;55066;51.560;4.642;2022-10-16T10:09:58;16.12;87.79
68251;DHT22;55066;51.560;4.642;2022-10-16T10:12:28;16.29;87.73
68251;DHT22;55066;51.560;4.642;2022-10-16T10:14:56;16.43;87.71
68251;DHT22;55066;51.560;4.642;2022-10-16T10:17:24;16.46;86.88
68251;DHT22;55066;51.560;4.642;2022-10-16T10:20:15;16.43;86.99
68251;DHT22;55066;51.560;4.642;2022-10-16T10:22:44;16.63;86.38
68251;DHT22;55066;51.560;4.642;2022-10-16T10:35:45;17.73;84.20
68251;DHT22;55066;51.560;4.642;2022-10-16T10:38:39;18.04;83.27
68251;DHT22;55066;51.560;4.642;2022-10-16T10:46:34;18.66;81.55
68251;DHT22;55066;51.560;4.642;2022-10-16T10:49:29;18.87;80.17
68251;DHT22;55066;51.560;4.642;2022-10-16T10:54:46;19.10;79.32
68251;DHT22;55066;51.560;4.642;2022-10-16T10:57:25;18.99;79.68
68251;DHT22;55066;51.560;4.642;2022-10-16T11:00:11;19.17;79.24
68251;DHT22;55066;51.560;4.642;2022-10-16T11:05:42;18.48;80.23
68251;DHT22;55066;51.560;4.642;2022-10-16T11:08:33;18.38;80.28
68251;DHT22;55066;51.560;4.642;2022-10-16T11:16:39;18.79;82.60
68251;DHT22;55066;51.560;4.642;2022-10-16T11:19:28;18.66;82.89
68251;DHT22;55066;51.560;4.642;2022-10-16T11:27:40;18.95;78.89
68251;DHT22;55066;51.560;4.642;2022-10-16T11:30:24;18.77;78.22
68251;DHT22;55066;51.560;4.642;2022-10-16T11:41:17;18.92;79.38
68251;DHT22;55066;51.560;4.642;2022-10-16T11:46:24;18.97;82.57
68251;DHT22;55066;51.560;4.642;2022-10-16T11:49:06;19.06;81.46
68251;DHT22;55066;51.560;4.642;2022-10-16T11:51:38;19.23;77.62
68251;DHT22;55066;51.560;4.642;2022-10-16T11:54:46;19.90;79.96
68251;DHT22;55066;51.560;4.642;2022-10-16T11:57:13;20.14;77.51
68251;DHT22;55066;51.560;4.642;2022-10-16T11:59:46;20.05;77.99
68251;DHT22;55066;51.560;4.642;2022-10-16T12:05:06;20.12;74.07
68251;DHT22;55066;51.560;4.642;2022-10-16T12:07:41;20.12;79.59
68251;DHT22;55066;51.560;4.642;2022-10-16T12:54:37;20.89;79.40
68251;DHT22;55066;51.560;4.642;2022-10-16T13:05:34;21.47;84.04
68251;DHT22;55066;51.560;4.642;2022-10-16T13:14:04;21.04;76.72
68251;DHT22;55066;51.560;4.642;2022-10-16T13:17:11;20.54;75.50
68251;DHT22;55066;51.560;4.642;2022-10-16T13:20:11;20.20;77.21
68251;DHT22;55066;51.560;4.642;2022-10-16T13:22:51;20.21;75.95
68251;DHT22;55066;51.560;4.642;2022-10-16T13:25:53;20.79;82.65
68251;DHT22;55066;51.560;4.642;2022-10-16T13:28:13;20.83;73.79
68251;DHT22;55066;51.560;4.642;2022-10-16T13:30:42;20.99;79.53
68251;DHT22;55066;51.560;4.642;2022-10-16T13:33:19;21.22;84.15
68251;DHT22;55066;51.560;4.642;2022-10-16T13:35:54;20.82;78.72
68251;DHT22;55066;51.560;4.642;2022-10-16T13:38:24;20.03;74.26
68251;DHT22;55066;51.560;4.642;2022-10-16T13:40:58;19.63;77.80
68251;DHT22;55066;51.560;4.642;2022-10-16T13:43:35;20.45;80.14
68251;DHT22;55066;51.560;4.642;2022-10-16T13:46:05;21.04;86.03
68251;DHT22;55066;51.560;4.642;2022-10-16T13:48:32;20.55;73.93
68251;DHT22;55066;51.560;4.642;2022-10-16T13:51:06;20.59;72.85
68251;DHT22;55066;51.560;4.642;2022-10-16T13:53:36;20.55;74.55
68251;DHT22;55066;51.560;4.642;2022-10-16T13:56:04;20.81;79.84
68251;DHT22;55066;51.560;4.642;2022-10-16T13:58:30;21.04;76.09
68251;DHT22;55066;51.560;4.642;2022-10-16T14:03:42;20.17;76.61
68251;DHT22;55066;51.560;4.642;2022-10-16T14:06:12;20.30;88.80
68251;DHT22;55066;51.560;4.642;2022-10-16T14:08:42;20.01;75.16
68251;DHT22;55066;51.560;4.642;2022-10-16T14:11:08;19.99;79.31
68251;DHT22;55066;51.560;4.642;2022-10-16T14:13:37;19.59;76.66
68251;DHT22;55066;51.560;4.642;2022-10-16T14:16:11;19.55;76.32
68251;DHT22;55066;51.560;4.642;2022-10-16T14:18:45;19.73;78.30
68251;DHT22;55066;51.560;4.642;2022-10-16T14:21:13;19.96;76.33
68251;DHT22;55066;51.560;4.642;2022-10-16T14:23:41;20.43;74.95
68251;DHT22;55066;51.560;4.642;2022-10-16T14:26:13;20.64;77.37
68251;DHT22;55066;51.560;4.642;2022-10-16T14:28:40;20.26;74.98
68251;DHT22;55066;51.560;4.642;2022-10-16T14:31:30;20.06;86.77
68251;DHT22;55066;51.560;4.642;2022-10-16T14:33:56;19.94;81.52
68251;DHT22;55066;51.560;4.642;2022-10-16T14:36:23;19.57;76.84
68251;DHT22;55066;51.560;4.642;2022-10-16T14:39:04;19.72;83.76
68251;DHT22;55066;51.560;4.642;2022-10-16T14:41:31;19.72;80.47
68251;DHT22;55066;51.560;4.642;2022-10-16T14:44:02;19.57;77.79
68251;DHT22;55066;51.560;4.642;2022-10-16T14:46:36;19.71;88.00
68251;DHT22;55066;51.560;4.642;2022-10-16T14:49:16;19.73;84.23
68251;DHT22;55066;51.560;4.642;2022-10-16T14:51:42;19.73;82.88
68251;DHT22;55066;51.560;4.642;2022-10-16T14:54:10;19.83;88.86
68251;DHT22;55066;51.560;4.642;2022-10-16T14:56:53;19.58;83.07
68251;DHT22;55066;51.560;4.642;2022-10-16T15:01:58;19.52;85.24
68251;DHT22;55066;51.560;4.642;2022-10-16T15:04:24;19.35;82.42
68251;DHT22;55066;51.560;4.642;2022-10-16T15:06:49;19.34;87.84
68251;DHT22;55066;51.560;4.642;2022-10-16T15:09:17;19.15;80.77
68251;DHT22;55066;51.560;4.642;2022-10-16T15:11:43;19.11;83.96
68251;DHT22;55066;51.560;4.642;2022-10-16T15:14:12;18.86;82.55
68251;DHT22;55066;51.560;4.642;2022-10-16T15:16:38;18.72;85.38
68251;DHT22;55066;51.560;4.642;2022-10-16T15:19:04;18.75;82.31
68251;DHT22;55066;51.560;4.642;2022-10-16T15:21:32;18.69;86.66
68251;DHT22;55066;51.560;4.642;2022-10-16T15:23:58;18.87;87.92
68251;DHT22;55066;51.560;4.642;2022-10-16T15:26:25;19.02;89.22
68251;DHT22;55066;51.560;4.642;2022-10-16T15:28:53;19.11;82.56
68251;DHT22;55066;51.560;4.642;2022-10-16T15:31:19;18.59;85.11
68251;DHT22;55066;51.560;4.642;2022-10-16T15:33:49;18.30;84.86
68251;DHT22;55066;51.560;4.642;2022-10-16T15:36:24;18.45;90.29
68251;DHT22;55066;51.560;4.642;2022-10-16T15:38:50;18.53;90.07
68251;DHT22;55066;51.560;4.642;2022-10-16T15:41:21;18.55;92.43
68251;DHT22;55066;51.560;4.642;2022-10-16T15:43:48;18.27;86.35
68251;DHT22;55066;51.560;4.642;2022-10-16T15:46:22;18.32;89.46
68251;DHT22;55066;51.560;4.642;2022-10-16T15:48:49;18.31;88.39
68251;DHT22;55066;51.560;4.642;2022-10-16T15:51:16;18.20;85.75
68251;DHT22;55066;51.560;4.642;2022-10-16T15:53:41;17.89;88.97
68251;DHT22;55066;51.560;4.642;2022-10-16T15:56:09;17.87;88.04
68251;DHT22;55066;51.560;4.642;2022-10-16T15:58:36;17.89;90.31
68251;DHT22;55066;51.560;4.642;2022-10-16T16:01:02;17.77;90.78
68251;DHT22;55066;51.560;4.642;2022-10-16T16:03:30;17.62;86.81
68251;DHT22;55066;51.560;4.642;2022-10-16T16:05:56;17.42;86.62
68251;DHT22;55066;51.560;4.642;2022-10-16T16:08:21;17.42;86.92
68251;DHT22;55066;51.560;4.642;2022-10-16T16:11:05;17.52;92.36
68251;DHT22;55066;51.560;4.642;2022-10-16T16:13:31;17.69;90.22
68251;DHT22;55066;51.560;4.642;2022-10-16T16:15:56;17.62;90.53
68251;DHT22;55066;51.560;4.642;2022-10-16T16:18:31;17.45;89.66
68251;DHT22;55066;51.560;4.642;2022-10-16T16:20:56;17.45;89.44
68251;DHT22;55066;51.560;4.642;2022-10-16T16:23:22;17.27;90.00
68251;DHT22;55066;51.560;4.642;2022-10-16T16:28:29;16.93;88.22
68251;DHT22;55066;51.560;4.642;2022-10-16T16:30:55;16.99;90.90
68251;DHT22;55066;51.560;4.642;2022-10-16T16:33:21;16.97;92.88
68251;DHT22;55066;51.560;4.642;2022-10-16T16:35:47;16.94;92.42
68251;DHT22;55066;51.560;4.642;2022-10-16T16:38:12;16.70;90.75
68251;DHT22;55066;51.560;4.642;2022-10-16T16:40:38;16.56;90.39
68251;DHT22;55066;51.560;4.642;2022-10-16T16:43:03;16.64;92.75
68251;DHT22;55066;51.560;4.642;2022-10-16T16:45:29;16.70;92.73
68251;DHT22;55066;51.560;4.642;2022-10-16T16:47:54;16.74;92.66
68251;DHT22;55066;51.560;4.642;2022-10-16T16:50:20;16.69;92.66
68251;DHT22;55066;51.560;4.642;2022-10-16T16:52:45;16.73;90.42
68251;DHT22;55066;51.560;4.642;2022-10-16T16:55:10;16.45;89.83
68251;DHT22;55066;51.560;4.642;2022-10-16T16:57:36;16.30;91.14
68251;DHT22;55066;51.560;4.642;2022-10-16T17:00:01;16.25;92.03
68251;DHT22;55066;51.560;4.642;2022-10-16T17:02:26;16.28;91.91
68251;DHT22;55066;51.560;4.642;2022-10-16T17:04:52;16.29;92.28
68251;DHT22;55066;51.560;4.642;2022-10-16T17:07:17;16.15;90.96
68251;DHT22;55066;51.560;4.642;2022-10-16T17:09:43;16.21;93.40
68251;DHT22;55066;51.560;4.642;2022-10-16T17:12:08;16.17;92.24
68251;DHT22;55066;51.560;4.642;2022-10-16T17:14:36;16.09;90.94
68251;DHT22;55066;51.560;4.642;2022-10-16T17:17:01;16.02;92.01
68251;DHT22;55066;51.560;4.642;2022-10-16T17:19:27;16.05;93.02
68251;DHT22;55066;51.560;4.642;2022-10-16T17:21:52;16.00;91.90
68251;DHT22;55066;51.560;4.642;2022-10-16T17:24:18;15.84;92.70
68251;DHT22;55066;51.560;4.642;2022-10-16T17:29:27;15.87;92.51
68251;DHT22;55066;51.560;4.642;2022-10-16T17:31:55;15.83;92.53
68251;DHT22;55066;51.560;4.642;2022-10-16T17:34:20;15.80;92.81
68251;DHT22;55066;51.560;4.642;2022-10-16T17:36:46;15.69;92.76
68251;DHT22;55066;51.560;4.642;2022-10-16T17:39:13;15.73;93.41
68251;DHT22;55066;51.560;4.642;2022-10-16T17:41:42;15.86;93.67
68251;DHT22;55066;51.560;4.642;2022-10-16T17:44:07;16.00;92.91
68251;DHT22;55066;51.560;4.642;2022-10-16T17:46:33;15.87;92.17
68251;DHT22;55066;51.560;4.642;2022-10-16T17:48:59;15.81;92.86
68251;DHT22;55066;51.560;4.642;2022-10-16T17:51:28;15.87;93.08
68251;DHT22;55066;51.560;4.642;2022-10-16T17:53:56;15.91;92.50
68251;DHT22;55066;51.560;4.642;2022-10-16T17:56:22;16.01;92.32
68251;DHT22;55066;51.560;4.642;2022-10-16T17:58:52;16.08;92.05
68251;DHT22;55066;51.560;4.642;2022-10-16T18:01:30;16.11;91.70
68251;DHT22;55066;51.560;4.642;2022-10-16T18:04:18;16.08;91.52
68251;DHT22;55066;51.560;4.642;2022-10-16T18:06:44;16.07;91.53
68251;DHT22;55066;51.560;4.642;2022-10-16T18:09:11;15.97;91.62
68251;DHT22;55066;51.560;4.642;2022-10-16T18:11:39;15.86;92.26
68251;DHT22;55066;51.560;4.642;2022-10-16T18:14:05;15.77;92.44